sensor_id;sensor_type;location;lat;lon;timestamp;pressure;altitude;pressure_sealevel;temperature;humidity
41712;BME280;27399;51.516;13.670;2023-02-12T00:00:36;102264.34;;;7.17;93.43
41712;BME280;27399;51.516;13.670;2023-02-12T00:03:02;102265.16;;;7.14;93.68
41712;BME280;27399;51.516;13.670;2023-02-12T00:05:28;102256.13;;;7.09;96.70
41712;BME280;27399;51.516;13.670;2023-02-12T00:07:54;102263.81;;;7.01;97.03
41712;BME280;27399;51.516;13.670;2023-02-12T00:10:20;102259.19;;;6.95;97.95
41712;BME280;27399;51.516;13.670;2023-02-12T00:12:45;102265.50;;;6.99;96.76
41712;BME280;27399;51.516;13.670;2023-02-12T00:15:11;102269.16;;;7.03;96.62
41712;BME280;27399;51.516;13.670;2023-02-12T00:17:37;102252.19;;;6.97;95.91
41712;BME280;27399;51.516;13.670;2023-02-12T00:20:03;102271.19;;;7.10;95.83
41712;BME280;27399;51.516;13.670;2023-02-12T00:22:28;102261.44;;;7.09;95.76
41712;BME280;27399;51.516;13.670;2023-02-12T00:24:55;102266.50;;;7.03;96.53
41712;BME280;27399;51.516;13.670;2023-02-12T00:27:21;102257.91;;;7.10;95.59
41712;BME280;27399;51.516;13.670;2023-02-12T00:29:47;102276.25;;;7.02;95.57
41712;BME280;27399;51.516;13.670;2023-02-12T00:32:13;102274.81;;;7.12;95.31
41712;BME280;27399;51.516;13.670;2023-02-12T00:34:39;102273.91;;;7.11;95.31
41712;BME280;27399;51.516;13.670;2023-02-12T00:37:05;102273.69;;;7.05;96.71
41712;BME280;27399;51.516;13.670;2023-02-12T00:39:31;102284.38;;;7.07;95.47
41712;BME280;27399;51.516;13.670;2023-02-12T00:41:56;102284.63;;;7.14;94.20
41712;BME280;27399;51.516;13.670;2023-02-12T00:44:22;102285.81;;;6.98;96.88
41712;BME280;27399;51.516;13.670;2023-02-12T00:46:48;102271.88;;;6.80;97.33
41712;BME280;27399;51.516;13.670;2023-02-12T00:49:14;102281.75;;;7.08;95.94
41712;BME280;27399;51.516;13.670;2023-02-12T00:51:40;102285.81;;;6.98;96.06
41712;BME280;27399;51.516;13.670;2023-02-12T00:54:06;102280.41;;;6.95;96.41
41712;BME280;27399;51.516;13.670;2023-02-12T00:56:31;102281.59;;;7.04;95.82
41712;BME280;27399;51.516;13.670;2023-02-12T00:58:58;102284.94;;;6.98;95.63
41712;BME280;27399;51.516;13.670;2023-02-12T01:01:23;102278.09;;;7.05;94.97
41712;BME280;27399;51.516;13.670;2023-02-12T01:03:49;102288.25;;;6.92;95.92
41712;BME280;27399;51.516;13.670;2023-02-12T01:06:15;102282.75;;;6.86;95.80
41712;BME280;27399;51.516;13.670;2023-02-12T01:08:40;102294.19;;;6.85;96.44
41712;BME280;27399;51.516;13.670;2023-02-12T01:11:06;102293.44;;;6.89;96.32
41712;BME280;27399;51.516;13.670;2023-02-12T01:13:32;102289.22;;;6.94;96.82
41712;BME280;27399;51.516;13.670;2023-02-12T01:16:20;102283.59;;;6.85;95.96
41712;BME280;27399;51.516;13.670;2023-02-12T01:18:47;102297.22;;;6.96;97.53
41712;BME280;27399;51.516;13.670;2023-02-12T01:21:16;102299.03;;;6.97;98.36
41712;BME280;27399;51.516;13.670;2023-02-12T01:23:42;102298.22;;;7.00;97.18
41712;BME280;27399;51.516;13.670;2023-02-12T01:26:09;102295.31;;;6.92;98.20
41712;BME280;27399;51.516;13.670;2023-02-12T01:28:37;102300.56;;;6.90;97.50
41712;BME280;27399;51.516;13.670;2023-02-12T01:31:14;102309.88;;;6.79;98.20
41712;BME280;27399;51.516;13.670;2023-02-12T01:33:40;102302.66;;;6.99;96.71
41712;BME280;27399;51.516;13.670;2023-02-12T01:36:07;102303.66;;;7.03;96.11
41712;BME280;27399;51.516;13.670;2023-02-12T01:38:33;102280.31;;;6.92;95.95
41712;BME280;27399;51.516;13.670;2023-02-12T01:41:04;102299.78;;;6.93;96.12
41712;BME280;27399;51.516;13.670;2023-02-12T01:43:30;102305.34;;;7.01;97.15
41712;BME280;27399;51.516;13.670;2023-02-12T01:45:58;102301.97;;;7.05;96.83
41712;BME280;27399;51.516;13.670;2023-02-12T01:48:26;102304.19;;;6.92;96.33
41712;BME280;27399;51.516;13.670;2023-02-12T01:50:53;102313.22;;;6.97;98.79
41712;BME280;27399;51.516;13.670;2023-02-12T01:53:21;102308.63;;;6.93;97.83
41712;BME280;27399;51.516;13.670;2023-02-12T01:55:53;102309.88;;;7.03;97.54
41712;BME280;27399;51.516;13.670;2023-02-12T01:58:20;102305.78;;;7.13;96.83
41712;BME280;27399;51.516;13.670;2023-02-12T02:00:46;102303.81;;;7.07;95.91
41712;BME280;27399;51.516;13.670;2023-02-12T02:03:12;102300.31;;;7.08;95.37
41712;BME280;27399;51.516;13.670;2023-02-12T02:05:53;102307.28;;;7.05;96.00
41712;BME280;27399;51.516;13.670;2023-02-12T02:08:21;102307.59;;;7.14;94.73
41712;BME280;27399;51.516;13.670;2023-02-12T02:10:47;102314.72;;;7.15;93.79
41712;BME280;27399;51.516;13.670;2023-02-12T02:13:13;102309.28;;;7.12;94.09
41712;BME280;27399;51.516;13.670;2023-02-12T02:16:00;102310.13;;;7.11;93.77
41712;BME280;27399;51.516;13.670;2023-02-12T02:18:57;102311.09;;;7.13;93.97
41712;BME280;27399;51.516;13.670;2023-02-12T02:24:56;102311.78;;;7.07;94.01
41712;BME280;27399;51.516;13.670;2023-02-12T02:30:44;102302.97;;;7.08;94.38
41712;BME280;27399;51.516;13.670;2023-02-12T02:35:54;102309.94;;;7.05;96.77
41712;BME280;27399;51.516;13.670;2023-02-12T02:38:52;102311.78;;;7.07;95.96
41712;BME280;27399;51.516;13.670;2023-02-12T02:43:53;102314.41;;;7.06;94.64
41712;BME280;27399;51.516;13.670;2023-02-12T02:46:38;102321.44;;;7.05;94.79
41712;BME280;27399;51.516;13.670;2023-02-12T02:49:10;102316.09;;;7.04;94.19
41712;BME280;27399;51.516;13.670;2023-02-12T02:51:44;102325.91;;;7.06;94.31
41712;BME280;27399;51.516;13.670;2023-02-12T02:54:32;102320.66;;;7.08;92.84
41712;BME280;27399;51.516;13.670;2023-02-12T02:57:10;102318.84;;;7.07;93.30
41712;BME280;27399;51.516;13.670;2023-02-12T02:59:42;102328.56;;;7.06;94.27
41712;BME280;27399;51.516;13.670;2023-02-12T03:02:31;102336.94;;;6.93;94.17
41712;BME280;27399;51.516;13.670;2023-02-12T03:05:05;102331.78;;;6.97;93.25
41712;BME280;27399;51.516;13.670;2023-02-12T03:07:37;102333.81;;;7.05;93.30
41712;BME280;27399;51.516;13.670;2023-02-12T03:10:12;102339.06;;;7.03;92.88
41712;BME280;27399;51.516;13.670;2023-02-12T03:18:33;102339.13;;;6.80;94.93
41712;BME280;27399;51.516;13.670;2023-02-12T03:21:06;102345.59;;;6.89;93.74
41712;BME280;27399;51.516;13.670;2023-02-12T03:23:42;102347.47;;;6.91;93.65
41712;BME280;27399;51.516;13.670;2023-02-12T03:26:24;102350.44;;;6.76;95.07
41712;BME280;27399;51.516;13.670;2023-02-12T03:28:51;102355.25;;;6.87;94.72
41712;BME280;27399;51.516;13.670;2023-02-12T03:37:15;102354.44;;;6.89;96.54
41712;BME280;27399;51.516;13.670;2023-02-12T03:39:57;102366.78;;;6.87;95.04
41712;BME280;27399;51.516;13.670;2023-02-12T03:42:52;102367.72;;;6.89;93.89
41712;BME280;27399;51.516;13.670;2023-02-12T03:45:41;102375.69;;;6.89;94.99
41712;BME280;27399;51.516;13.670;2023-02-12T03:48:35;102377.25;;;6.84;94.86
41712;BME280;27399;51.516;13.670;2023-02-12T03:53:45;102390.69;;;6.89;94.44
41712;BME280;27399;51.516;13.670;2023-02-12T03:56:15;102386.19;;;6.86;94.12
41712;BME280;27399;51.516;13.670;2023-02-12T03:58:43;102398.63;;;6.87;94.66
41712;BME280;27399;51.516;13.670;2023-02-12T04:01:10;102400.38;;;6.88;94.28
41712;BME280;27399;51.516;13.670;2023-02-12T04:03:37;102408.13;;;6.82;93.58
41712;BME280;27399;51.516;13.670;2023-02-12T04:06:03;102406.56;;;6.87;92.94
41712;BME280;27399;51.516;13.670;2023-02-12T04:08:30;102405.66;;;6.87;93.24
41712;BME280;27399;51.516;13.670;2023-02-12T04:11:16;102407.34;;;6.85;94.04
41712;BME280;27399;51.516;13.670;2023-02-12T04:16:43;102388.41;;;6.75;93.27
41712;BME280;27399;51.516;13.670;2023-02-12T04:19:14;102414.53;;;6.87;93.24
41712;BME280;27399;51.516;13.670;2023-02-12T04:27:31;102431.28;;;6.86;92.60
41712;BME280;27399;51.516;13.670;2023-02-12T04:30:08;102433.69;;;6.80;92.67
41712;BME280;27399;51.516;13.670;2023-02-12T04:32:49;102427.53;;;6.81;92.93
41712;BME280;27399;51.516;13.670;2023-02-12T04:36:16;102428.50;;;6.83;94.00
41712;BME280;27399;51.516;13.670;2023-02-12T04:38:39;102425.00;;;6.84;94.48
41712;BME280;27399;51.516;13.670;2023-02-12T04:41:06;102438.97;;;6.80;94.16
41712;BME280;27399;51.516;13.670;2023-02-12T04:43:35;102439.16;;;6.85;92.68
41712;BME280;27399;51.516;13.670;2023-02-12T04:46:02;102432.19;;;6.87;92.65
41712;BME280;27399;51.516;13.670;2023-02-12T04:48:27;102416.09;;;6.82;92.63
41712;BME280;27399;51.516;13.670;2023-02-12T04:50:53;102424.09;;;6.83;93.99
41712;BME280;27399;51.516;13.670;2023-02-12T04:53:19;102432.13;;;6.85;94.14
41712;BME280;27399;51.516;13.670;2023-02-12T04:55:44;102424.09;;;6.83;93.84
41712;BME280;27399;51.516;13.670;2023-02-12T04:58:11;102428.63;;;6.86;93.06
41712;BME280;27399;51.516;13.670;2023-02-12T05:00:37;102431.38;;;6.89;92.88
41712;BME280;27399;51.516;13.670;2023-02-12T05:03:03;102423.44;;;6.89;91.89
41712;BME280;27399;51.516;13.670;2023-02-12T05:05:28;102427.03;;;6.91;91.97
41712;BME280;27399;51.516;13.670;2023-02-12T05:07:54;102426.69;;;6.82;92.83
41712;BME280;27399;51.516;13.670;2023-02-12T05:10:20;102440.09;;;6.85;92.95
41712;BME280;27399;51.516;13.670;2023-02-12T05:12:45;102439.28;;;6.88;92.88
41712;BME280;27399;51.516;13.670;2023-02-12T05:15:11;102450.63;;;6.83;92.70
41712;BME280;27399;51.516;13.670;2023-02-12T05:17:36;102449.94;;;6.89;91.76
41712;BME280;27399;51.516;13.670;2023-02-12T05:20:03;102448.13;;;6.88;91.93
41712;BME280;27399;51.516;13.670;2023-02-12T05:22:29;102450.63;;;6.83;92.11
41712;BME280;27399;51.516;13.670;2023-02-12T05:24:54;102442.97;;;6.91;91.72
41712;BME280;27399;51.516;13.670;2023-02-12T05:27:20;102448.28;;;6.91;91.60
41712;BME280;27399;51.516;13.670;2023-02-12T05:29:45;102437.78;;;6.94;91.66
41712;BME280;27399;51.516;13.670;2023-02-12T05:32:11;102439.59;;;6.95;92.33
41712;BME280;27399;51.516;13.670;2023-02-12T05:34:37;102441.16;;;6.90;92.59
41712;BME280;27399;51.516;13.670;2023-02-12T05:37:03;102441.06;;;6.87;92.45
41712;BME280;27399;51.516;13.670;2023-02-12T05:39:29;102441.28;;;6.93;91.67
41712;BME280;27399;51.516;13.670;2023-02-12T05:41:54;102437.66;;;6.91;91.70
41712;BME280;27399;51.516;13.670;2023-02-12T05:44:20;102442.97;;;6.91;91.86
41712;BME280;27399;51.516;13.670;2023-02-12T05:46:45;102450.09;;;6.92;92.23
41712;BME280;27399;51.516;13.670;2023-02-12T05:49:11;102447.97;;;6.83;93.48
41712;BME280;27399;51.516;13.670;2023-02-12T05:51:37;102453.41;;;6.87;92.18
41712;BME280;27399;51.516;13.670;2023-02-12T05:54:05;102454.19;;;6.84;93.07
41712;BME280;27399;51.516;13.670;2023-02-12T05:56:36;102468.47;;;6.88;91.54
41712;BME280;27399;51.516;13.670;2023-02-12T05:59:11;102465.63;;;6.83;92.59
41712;BME280;27399;51.516;13.670;2023-02-12T06:01:40;102464.06;;;6.88;91.67
41712;BME280;27399;51.516;13.670;2023-02-12T06:04:09;102461.41;;;6.88;92.09
41712;BME280;27399;51.516;13.670;2023-02-12T06:06:35;102445.97;;;6.78;91.83
41712;BME280;27399;51.516;13.670;2023-02-12T06:09:00;102462.28;;;6.87;91.38
41712;BME280;27399;51.516;13.670;2023-02-12T06:11:26;102470.09;;;6.84;92.48
41712;BME280;27399;51.516;13.670;2023-02-12T06:13:52;102476.47;;;6.89;91.77
41712;BME280;27399;51.516;13.670;2023-02-12T06:16:21;102476.13;;;6.80;92.42
41712;BME280;27399;51.516;13.670;2023-02-12T06:18:47;102469.09;;;6.80;93.44
41712;BME280;27399;51.516;13.670;2023-02-12T06:21:14;102476.25;;;6.83;92.40
41712;BME280;27399;51.516;13.670;2023-02-12T06:23:40;102475.81;;;6.72;92.91
41712;BME280;27399;51.516;13.670;2023-02-12T06:26:05;102475.28;;;6.81;91.90
41712;BME280;27399;51.516;13.670;2023-02-12T06:28:31;102479.88;;;6.85;91.72
41712;BME280;27399;51.516;13.670;2023-02-12T06:30:57;102486.06;;;6.86;91.53
41712;BME280;27399;51.516;13.670;2023-02-12T06:33:22;102493.19;;;6.87;91.46
41712;BME280;27399;51.516;13.670;2023-02-12T06:35:48;102491.38;;;6.86;91.62
41712;BME280;27399;51.516;13.670;2023-02-12T06:38:14;102495.78;;;6.85;92.36
41712;BME280;27399;51.516;13.670;2023-02-12T06:40:39;102508.25;;;6.88;91.48
41712;BME280;27399;51.516;13.670;2023-02-12T06:43:05;102504.50;;;6.82;91.90
41712;BME280;27399;51.516;13.670;2023-02-12T06:45:32;102508.75;;;6.77;92.73
41712;BME280;27399;51.516;13.670;2023-02-12T06:47:57;102513.16;;;6.77;92.85
41712;BME280;27399;51.516;13.670;2023-02-12T06:50:23;102512.38;;;6.79;93.24
41712;BME280;27399;51.516;13.670;2023-02-12T06:52:49;102520.38;;;6.81;91.94
41712;BME280;27399;51.516;13.670;2023-02-12T06:55:15;102520.50;;;6.84;91.52
41712;BME280;27399;51.516;13.670;2023-02-12T06:57:41;102525.94;;;6.87;91.75
41712;BME280;27399;51.516;13.670;2023-02-12T07:00:07;102528.47;;;6.84;92.17
41712;BME280;27399;51.516;13.670;2023-02-12T07:02:33;102531.91;;;6.81;92.56
41712;BME280;27399;51.516;13.670;2023-02-12T07:04:59;102534.22;;;6.74;92.57
41712;BME280;27399;51.516;13.670;2023-02-12T07:07:24;102534.88;;;6.68;92.95
41712;BME280;27399;51.516;13.670;2023-02-12T07:09:50;102524.09;;;6.63;92.18
41712;BME280;27399;51.516;13.670;2023-02-12T07:12:16;102546.53;;;6.72;92.95
41712;BME280;27399;51.516;13.670;2023-02-12T07:14:41;102548.34;;;6.73;93.88
41712;BME280;27399;51.516;13.670;2023-02-12T07:17:07;102540.97;;;6.65;94.37
41712;BME280;27399;51.516;13.670;2023-02-12T07:19:34;102541.25;;;6.73;93.56
41712;BME280;27399;51.516;13.670;2023-02-12T07:22:00;102550.84;;;6.70;94.07
41712;BME280;27399;51.516;13.670;2023-02-12T07:24:26;102550.28;;;6.77;93.68
41712;BME280;27399;51.516;13.670;2023-02-12T07:26:51;102548.84;;;6.64;94.10
41712;BME280;27399;51.516;13.670;2023-02-12T07:29:17;102547.31;;;6.69;93.90
41712;BME280;27399;51.516;13.670;2023-02-12T07:31:43;102545.63;;;6.71;93.76
41712;BME280;27399;51.516;13.670;2023-02-12T07:34:09;102554.66;;;6.76;94.11
41712;BME280;27399;51.516;13.670;2023-02-12T07:36:36;102558.94;;;6.73;94.29
41712;BME280;27399;51.516;13.670;2023-02-12T07:39:02;102563.31;;;6.72;94.09
41712;BME280;27399;51.516;13.670;2023-02-12T07:41:33;102570.38;;;6.72;94.36
41712;BME280;27399;51.516;13.670;2023-02-12T07:44:05;102564.56;;;6.80;93.30
41712;BME280;27399;51.516;13.670;2023-02-12T07:49:06;102584.31;;;6.87;92.63
41712;BME280;27399;51.516;13.670;2023-02-12T07:51:35;102581.75;;;6.90;92.12
41712;BME280;27399;51.516;13.670;2023-02-12T07:54:02;102585.56;;;6.97;93.35
41712;BME280;27399;51.516;13.670;2023-02-12T07:56:30;102590.09;;;7.00;95.18
41712;BME280;27399;51.516;13.670;2023-02-12T07:59:04;102581.28;;;7.01;94.35
41712;BME280;27399;51.516;13.670;2023-02-12T08:01:35;102591.06;;;7.02;96.31
41712;BME280;27399;51.516;13.670;2023-02-12T08:04:04;102598.31;;;7.06;95.59
41712;BME280;27399;51.516;13.670;2023-02-12T08:06:32;102597.47;;;7.07;93.75
41712;BME280;27399;51.516;13.670;2023-02-12T08:09:00;102605.53;;;7.10;93.74
41712;BME280;27399;51.516;13.670;2023-02-12T08:11:27;102608.47;;;7.16;94.02
41712;BME280;27399;51.516;13.670;2023-02-12T08:13:53;102599.66;;;7.17;92.70
41712;BME280;27399;51.516;13.670;2023-02-12T08:16:22;102610.16;;;7.14;95.20
41712;BME280;27399;51.516;13.670;2023-02-12T08:18:48;102604.00;;;7.15;94.25
41712;BME280;27399;51.516;13.670;2023-02-12T08:21:16;102610.28;;;7.17;93.30
41712;BME280;27399;51.516;13.670;2023-02-12T08:23:45;102613.13;;;7.22;92.75
41712;BME280;27399;51.516;13.670;2023-02-12T08:26:27;102615.03;;;7.26;92.86
41712;BME280;27399;51.516;13.670;2023-02-12T08:31:24;102619.22;;;7.19;96.01
41712;BME280;27399;51.516;13.670;2023-02-12T08:33:52;102616.66;;;7.22;95.92
41712;BME280;27399;51.516;13.670;2023-02-12T08:36:20;102619.31;;;7.22;97.14
41712;BME280;27399;51.516;13.670;2023-02-12T08:38:47;102612.47;;;7.27;95.19
41712;BME280;27399;51.516;13.670;2023-02-12T08:41:21;102619.63;;;7.30;94.97
41712;BME280;27399;51.516;13.670;2023-02-12T08:43:49;102618.94;;;7.34;94.21
41712;BME280;27399;51.516;13.670;2023-02-12T08:46:22;102618.97;;;7.36;93.14
41712;BME280;27399;51.516;13.670;2023-02-12T08:48:50;102617.34;;;7.39;95.67
41712;BME280;27399;51.516;13.670;2023-02-12T08:51:18;102618.28;;;7.40;94.93
41712;BME280;27399;51.516;13.670;2023-02-12T08:53:46;102620.06;;;7.41;94.71
41712;BME280;27399;51.516;13.670;2023-02-12T08:56:14;102617.59;;;7.46;94.35
41712;BME280;27399;51.516;13.670;2023-02-12T08:58:41;102628.28;;;7.47;96.47
41712;BME280;27399;51.516;13.670;2023-02-12T09:01:12;102627.31;;;7.45;96.64
41712;BME280;27399;51.516;13.670;2023-02-12T09:03:40;102632.63;;;7.45;94.01
41712;BME280;27399;51.516;13.670;2023-02-12T09:06:07;102640.09;;;7.55;94.76
41712;BME280;27399;51.516;13.670;2023-02-12T09:08:34;102638.38;;;7.56;96.38
41712;BME280;27399;51.516;13.670;2023-02-12T09:11:03;102647.34;;;7.59;95.39
41712;BME280;27399;51.516;13.670;2023-02-12T09:13:29;102643.88;;;7.60;94.88
41712;BME280;27399;51.516;13.670;2023-02-12T09:15:54;102641.44;;;7.67;95.27
41712;BME280;27399;51.516;13.670;2023-02-12T09:18:20;102646.16;;;7.51;98.15
41712;BME280;27399;51.516;13.670;2023-02-12T09:20:46;102651.47;;;7.51;97.89
41712;BME280;27399;51.516;13.670;2023-02-12T09:23:13;102654.34;;;7.57;97.96
41712;BME280;27399;51.516;13.670;2023-02-12T09:25:40;102655.56;;;7.66;95.59
41712;BME280;27399;51.516;13.670;2023-02-12T09:28:06;102650.28;;;7.67;95.62
41712;BME280;27399;51.516;13.670;2023-02-12T09:30:32;102653.75;;;7.65;96.21
41712;BME280;27399;51.516;13.670;2023-02-12T09:32:58;102653.03;;;7.69;97.14
41712;BME280;27399;51.516;13.670;2023-02-12T09:35:23;102657.31;;;7.65;96.83
41712;BME280;27399;51.516;13.670;2023-02-12T09:37:51;102661.97;;;7.71;94.69
41712;BME280;27399;51.516;13.670;2023-02-12T09:40:42;102670.88;;;7.73;94.57
41712;BME280;27399;51.516;13.670;2023-02-12T09:49:09;102670.97;;;7.74;94.23
41712;BME280;27399;51.516;13.670;2023-02-12T09:51:38;102663.88;;;7.75;93.67
41712;BME280;27399;51.516;13.670;2023-02-12T09:54:06;102673.75;;;7.78;92.55
41712;BME280;27399;51.516;13.670;2023-02-12T09:56:39;102664.72;;;7.74;93.14
41712;BME280;27399;51.516;13.670;2023-02-12T09:59:07;102675.72;;;7.83;93.13
41712;BME280;27399;51.516;13.670;2023-02-12T10:01:34;102683.59;;;7.80;94.33
41712;BME280;27399;51.516;13.670;2023-02-12T10:04:00;102682.75;;;7.81;93.90
41712;BME280;27399;51.516;13.670;2023-02-12T10:06:34;102685.50;;;7.84;96.20
41712;BME280;27399;51.516;13.670;2023-02-12T10:09:04;102687.44;;;7.88;96.45
41712;BME280;27399;51.516;13.670;2023-02-12T10:12:18;102696.38;;;7.90;96.12
41712;BME280;27399;51.516;13.670;2023-02-12T10:15:01;102685.97;;;7.97;96.21
41712;BME280;27399;51.516;13.670;2023-02-12T10:17:52;102681.81;;;8.03;97.39
41712;BME280;27399;51.516;13.670;2023-02-12T10:23:40;102674.25;;;8.14;97.45
41712;BME280;27399;51.516;13.670;2023-02-12T10:26:29;102673.88;;;8.05;98.78
41712;BME280;27399;51.516;13.670;2023-02-12T10:29:08;102677.63;;;8.10;99.09
41712;BME280;27399;51.516;13.670;2023-02-12T10:31:38;102685.13;;;7.98;98.45
41712;BME280;27399;51.516;13.670;2023-02-12T10:34:34;102679.78;;;8.20;98.68
41712;BME280;27399;51.516;13.670;2023-02-12T10:37:30;102682.28;;;8.16;98.73
41712;BME280;27399;51.516;13.670;2023-02-12T10:40:04;102668.59;;;8.29;96.88
41712;BME280;27399;51.516;13.670;2023-02-12T10:42:39;102671.84;;;8.22;98.35
41712;BME280;27399;51.516;13.670;2023-02-12T10:45:08;102667.47;;;8.22;98.64
41712;BME280;27399;51.516;13.670;2023-02-12T10:47:37;102664.69;;;8.44;98.51
41712;BME280;27399;51.516;13.670;2023-02-12T10:50:16;102659.31;;;8.42;98.15
41712;BME280;27399;51.516;13.670;2023-02-12T10:52:47;102658.69;;;8.49;98.34
41712;BME280;27399;51.516;13.670;2023-02-12T10:55:29;102658.41;;;8.66;98.91
41712;BME280;27399;51.516;13.670;2023-02-12T10:57:56;102654.78;;;8.64;96.56
41712;BME280;27399;51.516;13.670;2023-02-12T11:05:33;102656.66;;;8.66;97.36
41712;BME280;27399;51.516;13.670;2023-02-12T11:07:59;102656.16;;;8.78;97.17
41712;BME280;27399;51.516;13.670;2023-02-12T11:12:58;102656.25;;;8.80;96.26
41712;BME280;27399;51.516;13.670;2023-02-12T11:15:26;102662.44;;;8.80;95.54
41712;BME280;27399;51.516;13.670;2023-02-12T11:18:00;102658.31;;;8.89;96.29
41712;BME280;27399;51.516;13.670;2023-02-12T11:20:29;102657.44;;;8.90;94.55
41712;BME280;27399;51.516;13.670;2023-02-12T11:23:02;102661.13;;;8.93;94.38
41712;BME280;27399;51.516;13.670;2023-02-12T11:25:35;102655.97;;;8.98;93.76
41712;BME280;27399;51.516;13.670;2023-02-12T11:30:26;102652.72;;;8.81;94.76
41712;BME280;27399;51.516;13.670;2023-02-12T11:32:52;102654.25;;;9.00;94.96
41712;BME280;27399;51.516;13.670;2023-02-12T11:35:23;102650.25;;;8.87;94.59
41712;BME280;27399;51.516;13.670;2023-02-12T11:37:56;102653.34;;;8.99;94.33
41712;BME280;27399;51.516;13.670;2023-02-12T11:40:26;102633.09;;;8.77;94.78
41712;BME280;27399;51.516;13.670;2023-02-12T11:42:56;102650.41;;;8.92;93.44
41712;BME280;27399;51.516;13.670;2023-02-12T11:45:29;102647.13;;;8.99;92.35
41712;BME280;27399;51.516;13.670;2023-02-12T11:47:56;102646.75;;;8.88;93.57
41712;BME280;27399;51.516;13.670;2023-02-12T11:50:27;102640.56;;;8.89;92.91
41712;BME280;27399;51.516;13.670;2023-02-12T11:53:03;102644.41;;;8.97;91.47
41712;BME280;27399;51.516;13.670;2023-02-12T11:55:35;102644.28;;;8.94;91.70
41712;BME280;27399;51.516;13.670;2023-02-12T11:58:17;102637.09;;;8.92;92.37
41712;BME280;27399;51.516;13.670;2023-02-12T12:03:39;102642.50;;;8.93;91.48
41712;BME280;27399;51.516;13.670;2023-02-12T12:15:01;102646.72;;;8.87;91.50
41712;BME280;27399;51.516;13.670;2023-02-12T12:17:54;102653.84;;;8.88;92.52
41712;BME280;27399;51.516;13.670;2023-02-12T12:20:50;102646.59;;;8.83;92.89
41712;BME280;27399;51.516;13.670;2023-02-12T12:23:19;102650.16;;;8.84;93.30
41712;BME280;27399;51.516;13.670;2023-02-12T12:25:51;102643.19;;;8.88;92.59
41712;BME280;27399;51.516;13.670;2023-02-12T12:31:01;102638.47;;;8.79;94.48
41712;BME280;27399;51.516;13.670;2023-02-12T12:34:15;102638.41;;;8.77;95.07
41712;BME280;27399;51.516;13.670;2023-02-12T12:46:55;102630.19;;;8.71;96.23
41712;BME280;27399;51.516;13.670;2023-02-12T12:52:25;102612.13;;;8.61;94.50
41712;BME280;27399;51.516;13.670;2023-02-12T12:55:01;102616.78;;;8.68;95.44
41712;BME280;27399;51.516;13.670;2023-02-12T12:57:56;102619.25;;;8.62;97.23
41712;BME280;27399;51.516;13.670;2023-02-12T13:06:29;102614.72;;;8.59;96.80
41712;BME280;27399;51.516;13.670;2023-02-12T13:09:19;102615.84;;;8.66;94.99
41712;BME280;27399;51.516;13.670;2023-02-12T13:14:49;102608.56;;;8.60;96.78
41712;BME280;27399;51.516;13.670;2023-02-12T13:17:24;102610.53;;;8.66;96.09
41712;BME280;27399;51.516;13.670;2023-02-12T13:20:33;102603.72;;;8.74;97.79
41712;BME280;27399;51.516;13.670;2023-02-12T13:23:29;102609.84;;;8.72;97.02
41712;BME280;27399;51.516;13.670;2023-02-12T13:26:10;102612.38;;;8.68;97.42
41712;BME280;27399;51.516;13.670;2023-02-12T13:28:49;102617.00;;;8.74;95.75
41712;BME280;27399;51.516;13.670;2023-02-12T13:31:21;102602.91;;;8.77;95.85
41712;BME280;27399;51.516;13.670;2023-02-12T13:33:54;102603.47;;;8.68;97.40
41712;BME280;27399;51.516;13.670;2023-02-12T13:36:21;102607.53;;;8.82;97.46
41712;BME280;27399;51.516;13.670;2023-02-12T13:39:53;102608.53;;;8.86;97.38
41712;BME280;27399;51.516;13.670;2023-02-12T13:41:57;102611.97;;;8.82;97.87
41712;BME280;27399;51.516;13.670;2023-02-12T13:52:47;102622.91;;;8.91;96.20
41712;BME280;27399;51.516;13.670;2023-02-12T13:56:05;102609.44;;;8.87;96.90
41712;BME280;27399;51.516;13.670;2023-02-12T14:01:03;102602.44;;;8.89;95.14
41712;BME280;27399;51.516;13.670;2023-02-12T14:03:30;102622.00;;;8.91;94.67
41712;BME280;27399;51.516;13.670;2023-02-12T14:06:18;102613.94;;;8.88;94.65
41712;BME280;27399;51.516;13.670;2023-02-12T14:09:08;102612.03;;;8.85;94.01
41712;BME280;27399;51.516;13.670;2023-02-12T14:11:49;102616.31;;;8.80;94.73
41712;BME280;27399;51.516;13.670;2023-02-12T14:14:27;102617.44;;;8.87;94.81
41712;BME280;27399;51.516;13.670;2023-02-12T14:16:55;102616.59;;;8.88;93.64
41712;BME280;27399;51.516;13.670;2023-02-12T14:24:57;102612.97;;;8.86;94.81
41712;BME280;27399;51.516;13.670;2023-02-12T14:27:28;102611.72;;;8.76;96.57
41712;BME280;27399;51.516;13.670;2023-02-12T14:37:58;102613.53;;;9.03;95.06
41712;BME280;27399;51.516;13.670;2023-02-12T14:50:02;102604.63;;;9.29;94.28
41712;BME280;27399;51.516;13.670;2023-02-12T14:52:37;102623.69;;;9.43;92.97
41712;BME280;27399;51.516;13.670;2023-02-12T14:55:24;102617.44;;;9.41;93.51
41712;BME280;27399;51.516;13.670;2023-02-12T14:57:57;102615.47;;;9.36;92.97
41712;BME280;27399;51.516;13.670;2023-02-12T15:00:30;102622.75;;;9.41;93.46
41712;BME280;27399;51.516;13.670;2023-02-12T15:05:46;102622.66;;;9.38;93.20
41712;BME280;27399;51.516;13.670;2023-02-12T15:08:27;102626.03;;;9.33;93.98
41712;BME280;27399;51.516;13.670;2023-02-12T15:11:16;102632.47;;;9.39;92.29
41712;BME280;27399;51.516;13.670;2023-02-12T15:18:58;102625.09;;;9.32;92.81
41712;BME280;27399;51.516;13.670;2023-02-12T15:21:30;102614.28;;;9.26;92.06
41712;BME280;27399;51.516;13.670;2023-02-12T15:24:04;102623.97;;;9.24;92.30
41712;BME280;27399;51.516;13.670;2023-02-12T15:26:51;102628.44;;;9.25;93.21
41712;BME280;27399;51.516;13.670;2023-02-12T15:29:30;102628.47;;;9.26;94.40